Time;durP1;ratioP1;P1;durP2;ratioP2;P2;SDS_P1;SDS_P2;PMS_P1;PMS_P2;Temp;Humidity;BMP_temperature;BMP_pressure;BME280_temperature;BME280_humidity;BME280_pressure;Samples;Min_cycle;Max_cycle;Signal;HPM_P1;HPM_P2
2023/11/21 00:01:24;;;;;;;27.27;18.07;;;9.00;99.90;;;;;;5060692;28;20261;-85
2023/11/21 00:03:50;;;;;;;30.83;18.70;;;9.00;99.90;;;;;;5081612;28;20236;-85
2023/11/21 00:06:16;;;;;;;30.63;18.00;;;8.90;99.90;;;;;;5048370;28;20254;-85
2023/11/21 00:08:43;;;;;;;29.70;16.70;;;8.90;99.90;;;;;;5041271;28;20183;-86
2023/11/21 00:11:08;;;;;;;28.30;17.80;;;8.90;99.90;;;;;;5077336;28;20239;-85
2023/11/21 00:13:34;;;;;;;25.07;17.07;;;8.80;99.90;;;;;;5060262;28;20209;-85
2023/11/21 00:16:04;;;;;;;27.53;17.40;;;8.80;99.90;;;;;;5078557;28;20648;-85
2023/11/21 00:18:30;;;;;;;27.97;17.40;;;8.80;99.90;;;;;;5060079;28;20300;-85
2023/11/21 00:20:58;;;;;;;32.67;18.90;;;8.70;99.90;;;;;;5060776;28;20174;-85
2023/11/21 00:23:24;;;;;;;32.40;19.80;;;8.60;99.90;;;;;;5078723;28;20170;-85
2023/11/21 00:25:51;;;;;;;29.67;17.90;;;8.70;99.90;;;;;;5060963;28;20205;-85
2023/11/21 00:28:17;;;;;;;31.60;18.13;;;8.70;99.90;;;;;;5078900;28;20179;-85
2023/11/21 00:30:43;;;;;;;32.77;17.67;;;8.60;99.90;;;;;;5061450;28;20185;-85
2023/11/21 00:33:09;;;;;;;30.90;18.97;;;8.70;99.90;;;;;;5078708;28;20206;-85
2023/11/21 00:35:34;;;;;;;29.33;18.20;;;8.70;99.90;;;;;;5040519;28;20195;-85
2023/11/21 00:38:00;;;;;;;30.17;18.13;;;8.60;99.90;;;;;;5040259;28;20296;-85
2023/11/21 00:40:27;;;;;;;27.27;17.47;;;8.70;99.90;;;;;;5023618;28;20552;-85
2023/11/21 00:42:53;;;;;;;26.50;17.20;;;8.70;99.90;;;;;;5040479;28;20216;-86
2023/11/21 00:45:18;;;;;;;32.10;16.27;;;8.70;99.90;;;;;;5039989;28;20206;-85
2023/11/21 00:47:45;;;;;;;26.47;15.80;;;8.70;99.90;;;;;;5040182;28;20206;-85
2023/11/21 00:50:11;;;;;;;28.00;15.67;;;8.70;99.90;;;;;;5039069;28;20178;-85
2023/11/21 00:52:38;;;;;;;29.23;16.17;;;8.70;99.90;;;;;;5056997;28;20294;-85
2023/11/21 00:55:08;;;;;;;26.67;15.33;;;8.70;99.90;;;;;;5055480;28;20221;-85
2023/11/21 00:57:35;;;;;;;27.13;17.00;;;8.80;99.90;;;;;;5060035;28;20351;-85
2023/11/21 01:00:01;;;;;;;24.27;16.40;;;8.80;99.90;;;;;;5059925;28;20174;-85
2023/11/21 01:02:26;;;;;;;22.80;15.77;;;8.80;99.90;;;;;;5077879;28;20177;-85
2023/11/21 01:04:52;;;;;;;30.93;16.07;;;8.80;99.90;;;;;;5059628;28;20224;-85
2023/11/21 01:07:20;;;;;;;29.07;17.27;;;8.90;99.90;;;;;;5058273;28;20170;-85
2023/11/21 01:09:48;;;;;;;25.83;17.17;;;8.80;99.90;;;;;;5057367;28;20629;-85
2023/11/21 01:12:14;;;;;;;29.47;17.07;;;8.80;99.90;;;;;;5041189;28;20206;-87
2023/11/21 01:14:40;;;;;;;27.50;17.47;;;8.70;99.90;;;;;;5059851;28;20195;-85
2023/11/21 01:17:06;;;;;;;29.33;17.67;;;8.70;99.90;;;;;;5041333;28;20259;-85
2023/11/21 01:19:32;;;;;;;32.33;19.40;;;8.70;99.90;;;;;;5042991;28;20174;-85
2023/11/21 01:21:58;;;;;;;34.60;19.10;;;8.70;99.90;;;;;;5040746;28;20185;-85
2023/11/21 01:24:24;;;;;;;42.70;20.37;;;8.70;99.90;;;;;;5073336;28;20203;-86
2023/11/21 01:26:50;;;;;;;35.53;19.43;;;8.70;99.90;;;;;;5055589;28;20182;-87
2023/11/21 01:29:16;;;;;;;34.23;19.17;;;8.70;99.90;;;;;;5071132;28;20209;-86
2023/11/21 01:31:43;;;;;;;34.33;19.37;;;8.80;99.90;;;;;;5040320;28;20174;-86
2023/11/21 01:34:09;;;;;;;33.17;20.13;;;8.70;99.90;;;;;;5040983;28;20201;-86
2023/11/21 01:36:35;;;;;;;36.13;19.00;;;8.70;99.90;;;;;;5047260;28;20178;-86
2023/11/21 01:39:01;;;;;;;29.20;17.23;;;8.60;99.90;;;;;;5066048;28;20204;-86
2023/11/21 01:41:30;;;;;;;29.53;19.17;;;8.50;99.90;;;;;;5067815;28;20196;-85
2023/11/21 01:43:56;;;;;;;31.53;18.40;;;8.40;99.90;;;;;;5088914;28;20209;-86
2023/11/21 01:46:29;;;;;;;34.27;19.93;;;8.30;99.90;;;;;;5071513;28;20177;-85
2023/11/21 01:48:54;;;;;;;29.20;20.10;;;8.20;99.90;;;;;;5068155;28;20602;-86
2023/11/21 01:51:28;;;;;;;36.77;20.93;;;8.20;99.90;;;;;;5080838;28;20217;-86
2023/11/21 01:53:54;;;;;;;38.13;22.83;;;8.10;99.90;;;;;;5046501;28;20344;-86
2023/11/21 01:56:21;;;;;;;32.67;21.83;;;8.10;99.90;;;;;;5047104;28;20210;-85
2023/11/21 01:58:47;;;;;;;38.10;23.10;;;8.10;99.90;;;;;;5062769;28;20305;-85
2023/11/21 02:01:14;;;;;;;41.47;23.50;;;8.10;99.90;;;;;;5044204;28;20198;-86
2023/11/21 02:03:39;;;;;;;38.77;23.23;;;8.10;99.90;;;;;;5044085;28;20265;-85
2023/11/21 02:06:05;;;;;;;38.77;22.93;;;8.10;99.90;;;;;;5053065;28;20403;-86
2023/11/21 02:08:31;;;;;;;44.40;24.80;;;8.10;99.90;;;;;;5062837;28;20178;-85
2023/11/21 02:10:57;;;;;;;40.90;23.47;;;8.10;99.90;;;;;;5046755;28;20189;-85
2023/11/21 02:13:23;;;;;;;37.53;22.67;;;8.10;99.90;;;;;;5031455;28;20209;-85
2023/11/21 02:15:52;;;;;;;54.33;25.80;;;8.10;99.90;;;;;;5046898;28;20198;-85
2023/11/21 02:18:17;;;;;;;52.07;26.97;;;8.10;99.90;;;;;;5064004;28;20187;-85
2023/11/21 02:20:43;;;;;;;43.20;25.40;;;8.10;99.90;;;;;;5062035;28;20184;-85
2023/11/21 02:23:09;;;;;;;51.80;26.20;;;8.10;99.90;;;;;;5081907;28;20185;-85
2023/11/21 02:25:37;;;;;;;49.53;25.83;;;8.20;99.90;;;;;;5063417;28;20190;-85
2023/11/21 02:28:03;;;;;;;49.27;27.00;;;8.10;99.90;;;;;;5062959;28;20174;-86
2023/11/21 02:30:31;;;;;;;52.03;26.00;;;8.10;99.90;;;;;;5066905;28;20238;-85
2023/11/21 02:32:57;;;;;;;43.70;24.60;;;8.10;99.90;;;;;;5042576;28;20618;-86
2023/11/21 02:35:25;;;;;;;50.30;27.43;;;8.10;99.90;;;;;;5053767;28;20190;-85
2023/11/21 02:37:51;;;;;;;50.60;26.47;;;8.10;99.90;;;;;;5063534;28;20185;-85
2023/11/21 02:40:17;;;;;;;56.87;27.17;;;8.10;99.90;;;;;;5061459;28;20178;-85
2023/11/21 02:42:44;;;;;;;55.60;28.17;;;8.10;99.90;;;;;;5044876;28;20182;-85
2023/11/21 02:45:14;;;;;;;53.23;27.23;;;8.10;99.90;;;;;;5079240;28;20198;-86
2023/11/21 02:47:40;;;;;;;61.67;28.90;;;8.10;99.90;;;;;;5061404;28;20201;-85
2023/11/21 02:50:10;;;;;;;49.53;25.83;;;8.10;99.90;;;;;;5076278;28;20182;-85
2023/11/21 02:52:35;;;;;;;56.13;27.83;;;8.10;99.90;;;;;;5060613;28;20206;-85
2023/11/21 02:55:04;;;;;;;54.70;27.43;;;8.10;99.90;;;;;;5064313;28;20695;-85
2023/11/21 02:57:30;;;;;;;49.97;27.90;;;8.10;99.90;;;;;;5078852;28;20211;-85
2023/11/21 02:59:56;;;;;;;54.97;28.93;;;8.10;99.90;;;;;;5057331;28;20167;-86
2023/11/21 03:02:23;;;;;;;56.00;29.10;;;8.10;99.90;;;;;;5024741;28;20217;-85
2023/11/21 03:04:49;;;;;;;60.73;30.83;;;8.10;99.90;;;;;;5050073;28;20244;-86
2023/11/21 03:07:15;;;;;;;52.07;29.23;;;8.10;99.90;;;;;;5078610;28;20595;-85
2023/11/21 03:09:40;;;;;;;51.60;27.00;;;8.10;99.90;;;;;;5061058;28;20198;-86
2023/11/21 03:12:06;;;;;;;69.33;27.43;;;8.10;99.90;;;;;;5080125;28;20210;-85
2023/11/21 03:14:32;;;;;;;44.20;26.83;;;8.10;99.90;;;;;;5061027;28;20345;-85
2023/11/21 03:16:57;;;;;;;47.93;26.73;;;8.10;99.90;;;;;;5061392;28;20170;-84
2023/11/21 03:19:23;;;;;;;52.60;27.57;;;8.10;99.90;;;;;;5053221;28;20186;-85
2023/11/21 03:21:49;;;;;;;55.40;28.40;;;8.10;99.90;;;;;;5024676;28;20459;-86
2023/11/21 03:24:17;;;;;;;55.33;27.10;;;8.10;99.90;;;;;;5046703;28;20613;-85
2023/11/21 03:26:45;;;;;;;57.10;28.63;;;8.20;99.90;;;;;;5079018;28;20184;-86
2023/11/21 03:29:10;;;;;;;54.13;27.27;;;8.20;99.90;;;;;;5078229;28;20170;-86
2023/11/21 03:31:36;;;;;;;54.17;27.43;;;8.20;99.90;;;;;;5077828;28;20554;-85
2023/11/21 03:34:01;;;;;;;58.90;27.67;;;8.20;99.90;;;;;;5046666;28;20206;-85
2023/11/21 03:36:27;;;;;;;54.43;26.70;;;8.20;99.90;;;;;;5040978;28;20594;-85
2023/11/21 03:38:53;;;;;;;61.53;26.63;;;8.20;99.90;;;;;;5040375;28;20197;-85
2023/11/21 03:41:19;;;;;;;61.13;27.80;;;8.20;99.90;;;;;;5040830;28;20171;-86
2023/11/21 03:43:44;;;;;;;58.30;27.70;;;8.30;99.90;;;;;;5040616;28;20555;-85
2023/11/21 03:46:12;;;;;;;55.40;27.03;;;8.30;99.90;;;;;;5040455;28;20179;-85
2023/11/21 03:48:38;;;;;;;46.53;25.70;;;8.30;99.90;;;;;;5041034;28;20606;-85
2023/11/21 03:51:04;;;;;;;56.30;25.90;;;8.30;99.90;;;;;;5058645;28;20194;-85
2023/11/21 03:53:29;;;;;;;66.37;27.47;;;8.30;99.90;;;;;;5061068;28;20515;-85
2023/11/21 03:55:55;;;;;;;57.80;26.37;;;8.20;99.90;;;;;;5040583;28;20179;-85
2023/11/21 03:58:20;;;;;;;56.17;25.83;;;8.30;99.90;;;;;;5039323;28;20178;-85
2023/11/21 04:00:48;;;;;;;51.33;25.77;;;8.30;99.90;;;;;;5038872;28;20256;-85
2023/11/21 04:03:15;;;;;;;55.40;27.07;;;8.30;99.90;;;;;;5038702;28;20189;-86
2023/11/21 04:05:41;;;;;;;61.97;25.73;;;8.30;99.90;;;;;;5058214;28;20260;-85
2023/11/21 04:08:06;;;;;;;56.93;24.57;;;8.30;99.90;;;;;;5039022;28;20187;-85
2023/11/21 04:10:32;;;;;;;52.60;25.57;;;8.40;99.90;;;;;;5055780;28;20205;-85
2023/11/21 04:12:58;;;;;;;55.43;24.93;;;8.40;99.90;;;;;;5038031;28;20206;-85
2023/11/21 04:15:24;;;;;;;55.13;24.03;;;8.30;99.90;;;;;;5049974;28;20205;-85
2023/11/21 04:17:49;;;;;;;54.40;24.20;;;8.30;99.90;;;;;;5077144;28;20186;-85
2023/11/21 04:20:15;;;;;;;59.33;25.40;;;8.30;99.90;;;;;;5044250;28;20197;-85
2023/11/21 04:22:44;;;;;;;54.67;25.33;;;8.30;99.90;;;;;;5071339;28;20194;-85
2023/11/21 04:25:11;;;;;;;53.07;24.40;;;8.40;99.90;;;;;;5021660;28;20208;-85
2023/11/21 04:27:38;;;;;;;58.73;24.07;;;8.40;99.90;;;;;;5039213;28;20240;-85
2023/11/21 04:30:09;;;;;;;53.87;23.37;;;8.40;99.90;;;;;;5039632;28;20182;-85
2023/11/21 04:32:36;;;;;;;45.10;22.93;;;8.40;99.90;;;;;;5057586;28;20281;-85
2023/11/21 04:35:03;;;;;;;54.57;22.00;;;8.40;99.90;;;;;;5038980;28;20577;-86
2023/11/21 04:37:29;;;;;;;51.77;22.07;;;8.40;99.90;;;;;;5057569;28;20182;-85
2023/11/21 04:39:55;;;;;;;49.47;21.70;;;8.40;99.90;;;;;;5039917;28;20740;-85
2023/11/21 04:42:20;;;;;;;51.37;22.80;;;8.50;99.90;;;;;;5038613;28;20183;-85
2023/11/21 04:44:49;;;;;;;54.17;22.53;;;8.40;99.90;;;;;;5037016;28;20203;-85
2023/11/21 04:47:15;;;;;;;50.20;22.67;;;8.40;99.90;;;;;;5042311;28;20671;-86
2023/11/21 04:49:45;;;;;;;56.20;23.87;;;8.40;99.90;;;;;;5057955;28;20178;-85
2023/11/21 04:52:11;;;;;;;54.27;23.53;;;8.40;99.90;;;;;;5075684;28;20210;-86
2023/11/21 04:54:36;;;;;;;52.00;24.60;;;8.40;99.90;;;;;;5040908;28;20298;-86
2023/11/21 04:57:02;;;;;;;52.00;23.63;;;8.40;99.90;;;;;;5056679;28;20182;-85
2023/11/21 04:59:28;;;;;;;59.33;26.27;;;8.40;99.90;;;;;;5058328;28;20174;-85
2023/11/21 05:01:55;;;;;;;61.30;26.43;;;8.40;99.90;;;;;;5076061;28;20178;-85
2023/11/21 05:04:23;;;;;;;58.43;26.10;;;8.30;99.90;;;;;;5076704;28;20194;-84
2023/11/21 05:06:49;;;;;;;58.33;25.90;;;8.30;99.90;;;;;;5076339;28;20240;-85
2023/11/21 05:09:15;;;;;;;55.57;26.67;;;8.30;99.90;;;;;;5078159;28;20209;-85
2023/11/21 05:11:41;;;;;;;62.07;27.20;;;8.20;99.90;;;;;;5057664;28;20174;-85
2023/11/21 05:14:07;;;;;;;70.70;29.33;;;8.30;99.90;;;;;;5038612;28;20301;-85
2023/11/21 05:16:33;;;;;;;71.70;29.87;;;8.30;99.90;;;;;;5038456;28;20202;-85
2023/11/21 05:19:00;;;;;;;80.43;30.90;;;8.30;99.90;;;;;;5057347;28;20167;-85
2023/11/21 05:21:27;;;;;;;63.53;31.07;;;8.20;99.90;;;;;;5058378;28;20163;-85
2023/11/21 05:23:53;;;;;;;75.83;31.47;;;8.20;99.90;;;;;;5058356;28;20222;-85
2023/11/21 05:26:19;;;;;;;74.03;30.27;;;8.20;99.90;;;;;;5039176;28;20177;-85
2023/11/21 05:28:44;;;;;;;71.00;29.83;;;8.20;99.90;;;;;;5057305;28;20650;-85
2023/11/21 05:31:10;;;;;;;79.63;31.50;;;8.30;99.90;;;;;;5058614;28;20201;-85
2023/11/21 05:33:37;;;;;;;76.30;31.73;;;8.30;99.90;;;;;;5058411;28;20232;-85
2023/11/21 05:36:03;;;;;;;80.23;33.80;;;8.30;99.90;;;;;;5076870;28;20188;-86
2023/11/21 05:38:29;;;;;;;76.50;32.27;;;8.30;99.90;;;;;;5075360;28;20190;-85
2023/11/21 05:40:55;;;;;;;72.60;32.00;;;8.30;99.90;;;;;;5036482;28;20256;-85
2023/11/21 05:43:21;;;;;;;89.27;33.27;;;8.30;99.90;;;;;;5036985;28;20641;-85
2023/11/21 05:45:46;;;;;;;72.73;30.47;;;8.30;99.90;;;;;;5062035;28;20191;-85
2023/11/21 05:48:12;;;;;;;86.23;33.57;;;8.30;99.90;;;;;;5039795;28;20702;-85
2023/11/21 05:50:38;;;;;;;87.67;32.70;;;8.30;99.90;;;;;;5039789;28;20174;-85
2023/11/21 05:53:04;;;;;;;69.70;30.07;;;8.30;99.90;;;;;;5056599;28;20210;-85
2023/11/21 05:55:31;;;;;;;73.47;31.40;;;8.30;99.90;;;;;;5057115;28;20449;-85
2023/11/21 05:57:56;;;;;;;88.60;31.83;;;8.30;99.90;;;;;;5044502;28;20206;-84
2023/11/21 06:00:22;;;;;;;79.67;31.93;;;8.20;99.90;;;;;;5057298;28;20173;-85
2023/11/21 06:02:53;;;;;;;86.60;31.47;;;8.30;99.90;;;;;;5075001;28;20177;-85
2023/11/21 06:05:20;;;;;;;89.73;31.37;;;8.20;99.90;;;;;;5057011;28;20695;-85
2023/11/21 06:07:46;;;;;;;75.23;31.03;;;8.20;99.90;;;;;;5055998;28;20270;-85
2023/11/21 06:10:14;;;;;;;87.93;30.47;;;8.20;99.90;;;;;;5039906;28;20243;-85
2023/11/21 06:12:42;;;;;;;79.93;28.77;;;8.20;99.90;;;;;;5075189;28;20198;-85
2023/11/21 06:15:09;;;;;;;86.57;31.10;;;8.20;99.90;;;;;;5037816;28;20290;-85
2023/11/21 06:17:39;;;;;;;86.03;29.37;;;8.20;99.90;;;;;;5037776;28;20232;-85
2023/11/21 06:20:13;;;;;;;83.07;28.37;;;8.20;99.90;;;;;;5053420;28;20253;-86
2023/11/21 06:22:42;;;;;;;96.00;30.13;;;8.30;99.90;;;;;;5054310;28;20549;-85
2023/11/21 06:25:10;;;;;;;81.57;28.20;;;8.30;99.90;;;;;;5036981;28;20210;-85
2023/11/21 06:27:39;;;;;;;95.73;29.50;;;8.30;99.90;;;;;;5039902;28;20183;-85
2023/11/21 06:30:08;;;;;;;96.60;31.67;;;8.30;99.90;;;;;;5038822;28;20604;-88
2023/11/21 06:32:35;;;;;;;89.43;28.43;;;8.30;99.90;;;;;;5058352;28;20292;-86
2023/11/21 06:35:01;;;;;;;93.57;30.27;;;8.40;99.90;;;;;;5060450;28;20205;-85
2023/11/21 06:37:29;;;;;;;102.60;30.57;;;8.40;99.90;;;;;;5081031;28;20648;-85
2023/11/21 06:39:56;;;;;;;98.57;29.73;;;8.40;99.90;;;;;;5063999;28;20204;-85
2023/11/21 06:42:22;;;;;;;102.57;30.20;;;8.40;99.90;;;;;;5064743;28;20785;-85
2023/11/21 06:44:48;;;;;;;93.93;29.33;;;8.40;99.90;;;;;;5081952;28;20214;-85
2023/11/21 06:47:15;;;;;;;99.67;29.90;;;8.50;99.90;;;;;;5055102;28;20190;-85
2023/11/21 06:49:42;;;;;;;91.03;29.00;;;8.50;99.90;;;;;;5044910;28;20175;-85
2023/11/21 06:52:08;;;;;;;87.77;29.33;;;8.50;99.90;;;;;;5045127;28;20181;-85
2023/11/21 06:54:36;;;;;;;96.27;29.30;;;8.40;99.90;;;;;;5077361;28;20270;-85
2023/11/21 06:57:02;;;;;;;92.47;28.97;;;8.40;99.90;;;;;;5047284;28;20220;-85
2023/11/21 06:59:31;;;;;;;95.57;30.90;;;8.40;99.90;;;;;;5064033;28;20175;-84
2023/11/21 07:01:57;;;;;;;97.80;30.87;;;8.50;99.90;;;;;;5045670;28;20238;-85
2023/11/21 07:04:23;;;;;;;106.17;30.03;;;8.50;99.90;;;;;;5064521;28;20230;-85
2023/11/21 07:06:48;;;;;;;100.07;31.67;;;8.50;99.90;;;;;;5044999;28;20680;-85
2023/11/21 07:09:15;;;;;;;108.20;31.10;;;8.60;99.90;;;;;;5047554;28;20202;-85
2023/11/21 07:11:41;;;;;;;91.47;30.40;;;8.60;99.90;;;;;;5027452;28;20225;-85
2023/11/21 07:14:08;;;;;;;91.30;30.10;;;8.60;99.90;;;;;;5061134;28;20228;-85
2023/11/21 07:16:37;;;;;;;110.97;32.13;;;8.60;99.90;;;;;;5041398;28;20190;-85
2023/11/21 07:19:09;;;;;;;90.93;30.20;;;8.60;99.90;;;;;;5040812;28;20178;-85
2023/11/21 07:21:35;;;;;;;95.90;31.03;;;8.70;99.90;;;;;;5041680;28;20668;-85
2023/11/21 07:24:04;;;;;;;98.77;32.00;;;8.70;99.90;;;;;;5069082;28;20208;-88
2023/11/21 07:26:30;;;;;;;90.57;29.77;;;8.80;99.90;;;;;;5042187;28;20555;-89
2023/11/21 07:28:56;;;;;;;90.40;29.70;;;8.80;99.90;;;;;;5038604;28;20577;-88
2023/11/21 07:31:25;;;;;;;82.80;30.47;;;8.90;99.90;;;;;;5039458;28;20185;-86
2023/11/21 07:33:51;;;;;;;81.67;30.63;;;9.00;99.90;;;;;;5057295;28;20226;-86
2023/11/21 07:36:23;;;;;;;92.53;30.27;;;9.00;99.90;;;;;;5038191;28;20185;-85
2023/11/21 07:38:49;;;;;;;84.17;28.27;;;9.00;99.90;;;;;;5038527;28;20198;-85
2023/11/21 07:41:15;;;;;;;84.83;29.27;;;9.10;99.90;;;;;;5071172;28;20181;-85
2023/11/21 07:43:43;;;;;;;103.83;28.87;;;9.10;99.90;;;;;;5079677;28;20174;-87
2023/11/21 07:46:09;;;;;;;88.03;28.07;;;9.20;99.90;;;;;;5060593;28;20184;-86
2023/11/21 07:48:34;;;;;;;82.77;28.27;;;9.20;99.90;;;;;;5079266;28;20178;-86
2023/11/21 07:51:07;;;;;;;75.77;28.70;;;9.20;99.90;;;;;;5076622;28;20452;-85
2023/11/21 07:53:32;;;;;;;74.13;27.77;;;9.30;99.90;;;;;;5043528;28;20236;-86
2023/11/21 07:56:02;;;;;;;80.30;27.07;;;9.30;99.90;;;;;;5049879;28;20178;-85
2023/11/21 07:58:28;;;;;;;80.33;28.40;;;9.40;99.90;;;;;;5066699;28;20173;-86
2023/11/21 08:00:54;;;;;;;86.47;27.40;;;9.40;99.90;;;;;;5044001;28;20597;-86
2023/11/21 08:03:20;;;;;;;77.10;30.17;;;9.40;99.90;;;;;;5059655;28;20221;-85
2023/11/21 08:05:46;;;;;;;80.50;27.73;;;9.50;99.90;;;;;;5067303;28;20577;-85
2023/11/21 08:08:12;;;;;;;79.93;27.67;;;9.50;99.90;;;;;;5064184;28;20178;-86
2023/11/21 08:10:39;;;;;;;80.00;26.80;;;9.50;99.90;;;;;;5065248;28;20182;-85
2023/11/21 08:13:06;;;;;;;77.87;29.27;;;9.50;99.90;;;;;;5080900;28;20202;-86
2023/11/21 08:15:32;;;;;;;81.50;29.53;;;9.60;99.90;;;;;;5049442;28;20245;-86
2023/11/21 08:18:00;;;;;;;70.03;29.47;;;9.60;99.90;;;;;;5037527;28;20558;-86
2023/11/21 08:20:26;;;;;;;74.50;27.90;;;9.60;99.90;;;;;;5056029;28;20182;-86
2023/11/21 08:22:52;;;;;;;69.27;28.67;;;9.60;99.90;;;;;;5066618;28;20178;-89
2023/11/21 08:25:19;;;;;;;62.50;28.03;;;9.60;99.90;;;;;;5046126;28;20198;-89
2023/11/21 08:27:46;;;;;;;72.57;29.80;;;9.50;99.90;;;;;;5040451;28;20178;-89
2023/11/21 08:30:13;;;;;;;74.73;31.10;;;9.50;99.90;;;;;;5041888;28;20178;-85
2023/11/21 08:32:39;;;;;;;71.43;30.43;;;9.50;99.90;;;;;;5040799;28;20831;-86
2023/11/21 08:35:05;;;;;;;73.70;29.73;;;9.50;99.90;;;;;;5037249;28;20195;-85
2023/11/21 08:37:33;;;;;;;81.60;30.23;;;9.50;99.90;;;;;;5037972;28;20589;-85
2023/11/21 08:39:59;;;;;;;87.63;30.97;;;9.50;99.90;;;;;;5057748;28;20221;-85
2023/11/21 08:42:25;;;;;;;79.00;30.20;;;9.50;99.90;;;;;;5041345;28;20194;-86
2023/11/21 08:44:51;;;;;;;85.40;32.97;;;9.60;99.90;;;;;;5053029;28;20195;-85
2023/11/21 08:47:16;;;;;;;80.67;29.90;;;9.70;99.90;;;;;;5036933;28;20213;-86
2023/11/21 08:49:42;;;;;;;84.27;30.30;;;9.70;99.90;;;;;;5054994;28;20217;-86
2023/11/21 08:52:09;;;;;;;85.77;31.23;;;9.80;99.90;;;;;;5062944;28;20186;-85
2023/11/21 08:54:34;;;;;;;81.53;30.13;;;9.80;99.90;;;;;;5056156;28;20230;-86
2023/11/21 08:57:00;;;;;;;97.43;31.37;;;9.80;99.90;;;;;;5056150;28;20204;-86
2023/11/21 08:59:26;;;;;;;81.87;29.93;;;9.90;99.90;;;;;;5077412;28;20169;-85
2023/11/21 09:01:52;;;;;;;104.77;33.53;;;10.00;99.90;;;;;;5040688;28;20171;-86
2023/11/21 09:04:17;;;;;;;87.20;31.13;;;10.10;99.90;;;;;;5036012;28;20324;-86
2023/11/21 09:06:43;;;;;;;90.37;30.70;;;10.20;99.90;;;;;;5053917;28;20171;-86
2023/11/21 09:09:10;;;;;;;86.70;29.93;;;10.30;99.90;;;;;;5019801;28;20186;-86
2023/11/21 09:11:36;;;;;;;87.73;30.43;;;10.30;99.90;;;;;;5053378;28;20175;-86
2023/11/21 09:14:06;;;;;;;93.63;28.77;;;10.40;99.90;;;;;;5019594;28;20749;-86
2023/11/21 09:16:31;;;;;;;74.00;26.93;;;10.30;99.90;;;;;;5054042;28;20186;-86
2023/11/21 09:18:59;;;;;;;79.47;28.10;;;10.30;99.90;;;;;;5055141;28;20182;-86
2023/11/21 09:21:25;;;;;;;60.67;22.83;;;10.30;99.90;;;;;;5055523;28;20257;-86
2023/11/21 09:23:51;;;;;;;70.53;25.30;;;10.30;99.90;;;;;;5038128;28;20194;-86
2023/11/21 09:26:17;;;;;;;74.47;25.20;;;10.20;99.90;;;;;;5035837;28;20202;-86
2023/11/21 09:28:48;;;;;;;68.77;25.20;;;10.30;99.90;;;;;;5019880;28;20190;-85
2023/11/21 09:31:15;;;;;;;62.70;23.07;;;10.30;99.90;;;;;;5035560;28;20178;-86
2023/11/21 09:33:42;;;;;;;69.60;25.17;;;10.40;99.90;;;;;;5053693;28;20285;-86
2023/11/21 09:36:13;;;;;;;73.73;26.07;;;10.40;99.90;;;;;;5053562;28;20219;-86
2023/11/21 09:38:39;;;;;;;73.73;24.30;;;10.40;99.90;;;;;;5018904;28;20217;-86
2023/11/21 09:41:09;;;;;;;75.93;26.73;;;10.40;99.90;;;;;;5035740;28;20178;-86
2023/11/21 09:43:36;;;;;;;61.37;22.63;;;10.40;99.90;;;;;;5053587;28;20173;-86
2023/11/21 09:46:03;;;;;;;70.17;24.53;;;10.40;99.90;;;;;;5035869;28;20178;-86
2023/11/21 09:48:32;;;;;;;71.17;26.00;;;10.40;99.90;;;;;;5044451;28;20189;-86
2023/11/21 09:50:59;;;;;;;74.73;26.00;;;10.40;99.90;;;;;;5055226;28;20178;-86
2023/11/21 09:53:29;;;;;;;76.33;25.73;;;10.30;99.90;;;;;;5073942;28;20257;-86
2023/11/21 09:55:56;;;;;;;83.67;26.73;;;10.20;99.90;;;;;;5073557;28;20194;-85
2023/11/21 09:58:24;;;;;;;70.70;27.43;;;10.30;99.90;;;;;;5053473;28;20606;-86
2023/11/21 10:00:57;;;;;;;68.60;25.10;;;10.40;99.90;;;;;;5053401;28;20178;-86
2023/11/21 10:03:24;;;;;;;69.70;26.33;;;10.50;99.90;;;;;;5053624;28;20178;-86
2023/11/21 10:05:53;;;;;;;76.93;27.60;;;10.60;99.90;;;;;;5057216;28;20244;-85
2023/11/21 10:08:22;;;;;;;69.80;28.77;;;10.60;99.90;;;;;;5060137;28;20197;-85
2023/11/21 10:10:53;;;;;;;74.50;28.03;;;10.60;99.90;;;;;;5038803;28;20179;-86
2023/11/21 10:13:19;;;;;;;77.63;29.50;;;10.70;99.90;;;;;;5039589;28;20206;-85
2023/11/21 10:15:52;;;;;;;69.90;28.80;;;10.90;99.90;;;;;;5060994;28;20187;-85
2023/11/21 10:18:23;;;;;;;76.87;28.17;;;11.00;99.90;;;;;;5023370;28;20232;-85
2023/11/21 10:20:53;;;;;;;71.37;27.83;;;11.10;99.90;;;;;;5040717;28;20189;-85
2023/11/21 10:23:20;;;;;;;55.73;24.63;;;11.20;99.90;;;;;;5074875;28;20185;-85
2023/11/21 10:25:48;;;;;;;62.50;27.90;;;11.30;99.90;;;;;;5076366;28;20238;-86
2023/11/21 10:28:14;;;;;;;61.10;25.87;;;11.30;99.90;;;;;;5076870;28;20203;-86
2023/11/21 10:30:40;;;;;;;61.50;24.93;;;11.30;99.90;;;;;;5059430;28;20193;-86
2023/11/21 10:33:08;;;;;;;60.50;26.00;;;11.30;99.90;;;;;;5058432;28;20688;-85
2023/11/21 10:35:42;;;;;;;56.73;23.70;;;11.30;99.90;;;;;;5065959;28;20195;-85
2023/11/21 10:38:10;;;;;;;64.57;27.47;;;11.30;99.90;;;;;;5058505;28;20186;-86
2023/11/21 10:40:44;;;;;;;68.47;27.23;;;11.30;99.90;;;;;;5076911;28;20194;-86
2023/11/21 10:43:12;;;;;;;55.10;25.77;;;11.30;99.90;;;;;;5059333;28;20248;-86
2023/11/21 10:45:39;;;;;;;44.00;22.67;;;11.50;99.90;;;;;;5058742;28;20194;-86
2023/11/21 10:48:15;;;;;;;49.80;23.97;;;11.40;99.90;;;;;;5058093;28;20186;-85
2023/11/21 10:50:42;;;;;;;54.93;23.73;;;11.30;99.90;;;;;;5056201;28;20200;-86
2023/11/21 10:53:07;;;;;;;47.67;23.53;;;11.30;99.90;;;;;;5077366;28;20221;-86
2023/11/21 10:55:34;;;;;;;51.33;23.43;;;11.30;99.90;;;;;;5057861;28;20194;-86
2023/11/21 10:58:04;;;;;;;44.90;22.50;;;11.30;99.90;;;;;;5042185;28;20256;-86
2023/11/21 11:00:31;;;;;;;44.10;20.17;;;11.20;99.90;;;;;;5058698;28;20170;-86
2023/11/21 11:02:56;;;;;;;43.50;20.83;;;11.20;99.90;;;;;;5057863;28;20209;-86
2023/11/21 11:05:28;;;;;;;36.90;19.93;;;11.30;99.90;;;;;;5058562;28;20688;-86
2023/11/21 11:08:04;;;;;;;37.23;19.33;;;11.30;99.90;;;;;;5058482;28;20170;-86
2023/11/21 11:10:30;;;;;;;37.17;18.43;;;11.40;99.90;;;;;;5057759;28;20201;-86
2023/11/21 11:12:58;;;;;;;31.30;15.87;;;11.50;99.90;;;;;;5057725;28;20193;-86
2023/11/21 11:15:25;;;;;;;39.70;16.10;;;11.50;99.90;;;;;;5057960;28;20692;-86
2023/11/21 11:17:52;;;;;;;29.60;16.47;;;11.50;99.90;;;;;;5067995;28;20214;-86
2023/11/21 11:20:20;;;;;;;30.87;15.80;;;11.60;99.90;;;;;;5037529;28;20217;-86
2023/11/21 11:23:01;;;;;;;30.93;16.13;;;11.50;99.90;;;;;;5038954;28;20183;-86
2023/11/21 11:25:36;;;;;;;27.37;14.97;;;11.40;99.90;;;;;;5056588;28;20197;-86
2023/11/21 11:28:11;;;;;;;28.73;15.63;;;11.30;99.90;;;;;;5056883;28;20171;-86
2023/11/21 11:31:05;;;;;;;25.43;14.57;;;11.30;99.90;;;;;;5039441;28;20564;-86
2023/11/21 11:33:57;;;;;;;33.93;14.93;;;11.20;99.90;;;;;;5055366;28;20206;-87
2023/11/21 11:36:33;;;;;;;25.23;14.73;;;11.30;99.90;;;;;;5059354;28;20174;-85
2023/11/21 11:39:01;;;;;;;31.00;15.33;;;11.40;99.90;;;;;;5059694;28;20205;-85
2023/11/21 11:41:32;;;;;;;27.07;15.17;;;11.60;99.90;;;;;;5066681;28;20204;-86
2023/11/21 11:43:58;;;;;;;34.47;15.63;;;11.70;99.90;;;;;;5043089;28;20291;-85
2023/11/21 11:46:42;;;;;;;30.03;15.57;;;11.60;99.90;;;;;;5046158;28;20185;-85
2023/11/21 11:49:08;;;;;;;28.40;14.50;;;11.40;99.90;;;;;;5055604;28;20311;-85
2023/11/21 11:51:35;;;;;;;29.27;15.67;;;11.20;99.90;;;;;;5038471;28;20296;-87
2023/11/21 11:54:02;;;;;;;32.70;16.63;;;11.20;99.90;;;;;;5038711;28;20210;-90
2023/11/21 11:56:34;;;;;;;31.60;16.63;;;11.20;99.90;;;;;;5039327;28;20563;-86
2023/11/21 11:59:04;;;;;;;28.73;15.63;;;11.20;99.90;;;;;;5056352;28;20210;-86
2023/11/21 12:01:33;;;;;;;26.10;15.13;;;11.30;99.90;;;;;;5038539;28;20183;-85
2023/11/21 12:04:14;;;;;;;23.67;13.40;;;11.30;99.90;;;;;;5038758;28;20205;-85
2023/11/21 12:06:44;;;;;;;29.27;15.10;;;11.30;99.90;;;;;;5076390;28;20216;-85
2023/11/21 12:09:22;;;;;;;27.63;14.97;;;11.20;99.90;;;;;;5058689;28;20184;-85
2023/11/21 12:11:49;;;;;;;30.40;14.97;;;11.20;99.90;;;;;;5058137;28;20173;-85
2023/11/21 12:14:17;;;;;;;24.83;14.90;;;11.30;99.90;;;;;;5047479;28;20210;-85
2023/11/21 12:16:43;;;;;;;29.03;15.93;;;11.30;99.90;;;;;;5057105;28;20169;-85
2023/11/21 12:19:11;;;;;;;27.50;15.40;;;11.20;99.90;;;;;;5020018;28;20182;-85
2023/11/21 12:21:37;;;;;;;29.17;16.27;;;11.20;99.90;;;;;;5054710;28;20170;-85
2023/11/21 12:24:04;;;;;;;41.33;17.63;;;11.20;99.90;;;;;;5036383;28;20201;-85
2023/11/21 12:26:29;;;;;;;27.73;16.43;;;11.20;99.90;;;;;;5056053;28;20178;-85
2023/11/21 12:28:58;;;;;;;32.13;16.33;;;11.20;99.90;;;;;;5073954;28;20201;-85
2023/11/21 12:31:24;;;;;;;32.50;16.93;;;11.40;99.90;;;;;;5075765;28;20177;-86
2023/11/21 12:33:50;;;;;;;31.17;17.40;;;11.40;99.90;;;;;;5073986;28;20202;-86